Time;durP1;ratioP1;P1;durP2;ratioP2;P2;SDS_P1;SDS_P2;PMS_P1;PMS_P2;Temp;Humidity;BMP_temperature;BMP_pressure;BME280_temperature;BME280_humidity;BME280_pressure;Samples;Min_cycle;Max_cycle;Signal;HPM_P1;HPM_P2
2024/04/13 00:01:09;;;;;;;;;25.25;21.50;;;;;18.02;68.34;102260.09;5445693;26;43846;-49
2024/04/13 00:03:34;;;;;;;;;20.25;16.25;;;;;17.99;68.41;102252.25;5463376;26;45583;-48
2024/04/13 00:06:00;;;;;;;;;23.25;22.00;;;;;17.97;67.64;102258.50;5459355;25;43844;-49
2024/04/13 00:08:25;;;;;;;;;24.00;17.50;;;;;17.95;68.42;102260.34;5430274;26;43704;-48
2024/04/13 00:10:51;;;;;;;;;24.50;20.25;;;;;17.93;68.34;102252.44;5447857;25;43755;-50
2024/04/13 00:13:16;;;;;;;;;18.50;15.50;;;;;17.91;68.69;102248.13;5465096;25;43890;-49
2024/04/13 00:15:42;;;;;;;;;23.25;18.25;;;;;17.90;69.04;102249.91;5458597;25;71931;-52
2024/04/13 00:18:07;;;;;;;;;22.50;18.75;;;;;17.89;68.59;102255.25;5428878;26;43697;-48
2024/04/13 00:20:33;;;;;;;;;18.25;15.00;;;;;17.85;69.11;102251.81;5456932;25;44389;-50
2024/04/13 00:22:59;;;;;;;;;21.25;16.00;;;;;17.81;68.83;102247.50;5425258;26;73836;-51
2024/04/13 00:25:26;;;;;;;;;21.25;19.00;;;;;17.79;68.86;102239.63;5447489;25;45375;-48
2024/04/13 00:27:51;;;;;;;;;24.75;23.00;;;;;17.76;69.35;102239.75;5426771;26;43753;-50
2024/04/13 00:30:17;;;;;;;;;48.25;38.75;;;;;17.75;68.10;102234.50;5429455;26;44230;-47
2024/04/13 00:32:42;;;;;;;;;24.00;19.00;;;;;17.73;69.43;102231.88;5463433;26;70912;-48
2024/04/13 00:35:07;;;;;;;;;20.50;17.00;;;;;17.72;67.98;102242.53;5459900;25;43771;-49
2024/04/13 00:37:33;;;;;;;;;29.25;24.25;;;;;17.69;69.29;102230.28;5427147;26;69080;-48
2024/04/13 00:39:58;;;;;;;;;22.00;18.75;;;;;17.69;69.10;102232.03;5433793;26;71833;-53
2024/04/13 00:42:24;;;;;;;;;23.75;22.75;;;;;17.66;69.12;102222.41;5446413;26;44714;-48
2024/04/13 00:45:01;;;;;;;;;41.25;31.75;;;;;17.62;69.16;102220.81;5438682;26;44041;-51
2024/04/13 00:47:27;;;;;;;;;21.00;18.00;;;;;17.60;68.46;102214.66;5427490;26;43981;-46
2024/04/13 00:49:55;;;;;;;;;18.50;14.00;;;;;17.58;69.42;102217.38;5438038;26;43942;-52
2024/04/13 00:52:23;;;;;;;;;22.25;16.00;;;;;17.55;69.96;102216.63;5464109;25;44934;-47
2024/04/13 00:54:49;;;;;;;;;24.75;23.00;;;;;17.53;70.39;102215.78;5461068;26;43965;-51
2024/04/13 00:57:15;;;;;;;;;19.00;15.25;;;;;17.51;69.81;102213.22;5441864;26;43931;-50
2024/04/13 00:59:40;;;;;;;;;27.25;26.50;;;;;17.51;69.09;102215.84;5425345;26;44036;-47
2024/04/13 01:02:10;;;;;;;;;21.75;17.75;;;;;17.49;69.45;102206.22;5426554;26;74114;-49
2024/04/13 01:04:36;;;;;;;;;26.75;22.25;;;;;17.46;69.74;102207.19;5457166;25;44384;-52
2024/04/13 01:07:03;;;;;;;;;28.50;25.75;;;;;17.45;69.43;102200.16;5446211;25;43974;-51
2024/04/13 01:09:28;;;;;;;;;17.00;16.00;;;;;17.43;70.53;102200.22;5438481;26;43895;-49
2024/04/13 01:11:54;;;;;;;;;17.50;17.00;;;;;17.41;69.24;102201.19;5442222;26;73063;-47
2024/04/13 01:14:20;;;;;;;;;18.25;16.75;;;;;17.38;70.51;102198.63;5436958;25;70694;-49
2024/04/13 01:16:45;;;;;;;;;21.75;16.00;;;;;17.38;69.54;102209.22;5445967;25;43760;-51
2024/04/13 01:19:11;;;;;;;;;26.00;19.00;;;;;17.34;70.29;102203.16;5451610;26;43795;-50
2024/04/13 01:21:37;;;;;;;;;24.75;20.75;;;;;17.34;69.66;102210.25;5466769;25;44810;-50
2024/04/13 01:24:05;;;;;;;;;45.75;34.50;;;;;17.35;71.09;102204.00;5466613;25;43840;-49
2024/04/13 01:26:37;;;;;;;;;21.25;16.50;;;;;17.31;69.84;102202.38;5445086;26;43816;-47
2024/04/13 01:29:04;;;;;;;;;17.50;12.75;;;;;17.30;69.61;102205.94;5431128;26;43989;-50
2024/04/13 01:31:33;;;;;;;;;17.50;11.25;;;;;17.29;71.01;102215.66;5452514;26;44784;-47
2024/04/13 01:33:58;;;;;;;;;12.50;11.00;;;;;17.27;69.94;102209.56;5432573;25;44412;-53
2024/04/13 01:36:26;;;;;;;;;11.25;9.25;;;;;17.25;70.63;102201.66;5443553;25;55859;-50
2024/04/13 01:38:51;;;;;;;;;11.50;10.00;;;;;17.25;69.87;102203.44;5430708;26;44023;-52
2024/04/13 01:41:16;;;;;;;;;12.75;11.00;;;;;17.24;70.13;102197.28;5447841;26;47564;-51
2024/04/13 01:43:42;;;;;;;;;12.00;8.50;;;;;17.25;70.12;102200.81;5431612;25;71950;-50
2024/04/13 01:46:07;;;;;;;;;14.00;10.75;;;;;17.22;69.95;102192.97;5443802;25;68112;-52
2024/04/13 01:48:33;;;;;;;;;9.25;8.00;;;;;17.24;70.82;102193.78;5429409;26;72012;-49
2024/04/13 01:51:00;;;;;;;;;12.75;10.00;;;;;17.24;69.82;102188.47;5430625;26;44631;-48
2024/04/13 01:53:26;;;;;;;;;11.50;10.50;;;;;17.22;70.65;102190.31;5430565;26;43817;-50
2024/04/13 01:55:51;;;;;;;;;15.00;9.25;;;;;17.21;71.01;102196.50;5438441;25;44284;-53
2024/04/13 01:58:17;;;;;;;;;15.25;12.50;;;;;17.19;71.13;102193.03;5430968;26;43976;-48
2024/04/13 02:00:42;;;;;;;;;9.50;9.50;;;;;17.18;70.41;102194.84;5430261;26;44844;-52
2024/04/13 02:03:07;;;;;;;;;14.75;14.00;;;;;17.13;70.23;102204.69;5429499;26;72847;-49
2024/04/13 02:05:36;;;;;;;;;12.25;11.25;;;;;17.11;70.67;102195.09;5454532;25;43911;-53
2024/04/13 02:08:03;;;;;;;;;15.50;11.50;;;;;17.07;70.04;102199.59;5441704;25;70855;-49
2024/04/13 02:10:28;;;;;;;;;12.25;11.50;;;;;17.06;70.93;102197.88;5443640;25;43865;-47
2024/04/13 02:12:53;;;;;;;;;14.25;11.00;;;;;17.02;70.36;102205.03;5430557;26;44241;-48
2024/04/13 02:15:19;;;;;;;;;13.25;11.75;;;;;17.03;71.17;102203.22;5451526;25;68681;-52
2024/04/13 02:17:44;;;;;;;;;16.25;11.50;;;;;17.03;72.03;102197.94;5431496;25;70592;-50
2024/04/13 02:20:14;;;;;;;;;16.25;12.75;;;;;17.00;72.19;102200.72;5430348;26;47066;-51
2024/04/13 02:22:40;;;;;;;;;12.75;10.25;;;;;16.98;72.28;102202.50;5430727;26;44361;-49
2024/04/13 02:25:08;;;;;;;;;18.50;14.50;;;;;16.98;72.26;102207.78;5449143;25;43953;-53
2024/04/13 02:27:34;;;;;;;;;13.75;12.50;;;;;16.97;71.02;102206.94;5431502;25;44016;-49
2024/04/13 02:29:59;;;;;;;;;15.50;13.50;;;;;16.96;72.53;102212.28;5428593;26;43873;-51
2024/04/13 02:32:25;;;;;;;;;16.75;13.75;;;;;16.96;71.90;102215.78;5465963;26;43909;-53
2024/04/13 02:34:50;;;;;;;;;12.75;12.00;;;;;16.97;72.21;102211.38;5466111;25;43913;-53
2024/04/13 02:37:16;;;;;;;;;16.75;11.00;;;;;16.96;71.04;102202.56;5430407;25;71924;-53
2024/04/13 02:39:41;;;;;;;;;12.75;11.75;;;;;16.95;71.42;102211.41;5430393;26;43786;-52
2024/04/13 02:42:06;;;;;;;;;16.25;13.50;;;;;16.95;71.36;102199.97;5447968;26;72159;-48
2024/04/13 02:44:32;;;;;;;;;16.50;13.75;;;;;16.93;71.74;102197.38;5440543;26;43939;-49
2024/04/13 02:46:57;;;;;;;;;18.25;12.75;;;;;16.93;71.34;102199.13;5459866;25;43929;-48
2024/04/13 02:49:22;;;;;;;;;13.50;11.25;;;;;16.91;71.40;102195.66;5428961;26;74211;-53
2024/04/13 02:51:48;;;;;;;;;18.75;14.75;;;;;16.88;71.77;102192.22;5428912;26;66882;-48
2024/04/13 02:54:13;;;;;;;;;14.50;13.00;;;;;16.87;71.83;102195.78;5434668;25;68530;-51
2024/04/13 02:56:38;;;;;;;;;13.50;12.25;;;;;16.85;73.29;102199.38;5430899;25;71132;-46
2024/04/13 02:59:04;;;;;;;;;17.50;14.25;;;;;16.83;72.00;102191.47;5428923;26;74979;-47
2024/04/13 03:01:30;;;;;;;;;16.75;13.00;;;;;16.83;72.37;102194.13;5428628;26;70847;-48
2024/04/13 03:03:55;;;;;;;;;14.25;14.25;;;;;16.81;71.84;102192.41;5431650;25;43779;-52
2024/04/13 03:06:20;;;;;;;;;15.75;12.25;;;;;16.80;73.20;102188.03;5444774;26;69033;-52
2024/04/13 03:08:48;;;;;;;;;14.50;12.25;;;;;16.78;73.11;102189.88;5434663;26;51552;-48
2024/04/13 03:11:14;;;;;;;;;14.50;13.75;;;;;16.77;72.93;102185.47;5431714;25;43883;-48
2024/04/13 03:13:39;;;;;;;;;16.00;12.00;;;;;16.75;73.02;102182.00;5429956;26;44111;-48
2024/04/13 03:16:09;;;;;;;;;15.25;13.75;;;;;16.73;73.19;102184.69;5453500;25;43795;-53
2024/04/13 03:18:38;;;;;;;;;17.00;13.75;;;;;16.73;73.18;102175.91;5429991;26;44837;-46
2024/04/13 03:21:04;;;;;;;;;16.00;13.25;;;;;16.72;73.65;102175.06;5429888;26;44049;-47
2024/04/13 03:23:32;;;;;;;;;17.00;12.50;;;;;16.72;73.89;102168.91;5429599;26;43800;-47
2024/04/13 03:25:57;;;;;;;;;13.00;12.00;;;;;16.70;72.84;102172.44;5449447;25;43744;-48
2024/04/13 03:28:28;;;;;;;;;15.00;11.50;;;;;16.69;73.13;102172.50;5428748;26;45829;-47
2024/04/13 03:30:53;;;;;;;;;15.75;12.25;;;;;16.68;73.35;102161.06;5442305;26;44379;-49
2024/04/13 03:33:18;;;;;;;;;16.50;13.50;;;;;16.67;73.88;102163.75;5438433;26;43954;-45
2024/04/13 03:35:44;;;;;;;;;20.00;13.50;;;;;16.65;73.70;102161.16;5456890;26;55282;-48
2024/04/13 03:38:13;;;;;;;;;14.25;11.75;;;;;16.65;72.91;102157.66;5429342;26;44999;-47
2024/04/13 03:40:38;;;;;;;;;18.25;14.25;;;;;16.63;72.67;102148.91;5437221;26;44515;-47
2024/04/13 03:43:04;;;;;;;;;13.25;13.00;;;;;16.62;73.84;102155.94;5440552;25;43962;-47
2024/04/13 03:45:29;;;;;;;;;17.75;14.50;;;;;16.61;73.65;102151.59;5440904;26;44030;-49
2024/04/13 03:47:57;;;;;;;;;14.25;12.75;;;;;16.61;73.13;102145.41;5427648;26;74258;-48
2024/04/13 03:50:23;;;;;;;;;13.25;12.50;;;;;16.59;73.90;102139.31;5427722;26;43998;-51
2024/04/13 03:52:48;;;;;;;;;18.75;14.75;;;;;16.57;74.48;102135.84;5428327;26;61676;-48
2024/04/13 03:55:14;;;;;;;;;15.50;12.50;;;;;16.57;74.27;102143.78;5437306;25;44067;-52
2024/04/13 03:57:39;;;;;;;;;14.50;13.75;;;;;16.54;73.01;102136.81;5429096;26;44954;-48
2024/04/13 04:00:06;;;;;;;;;17.25;13.50;;;;;16.51;73.75;102134.25;5428031;26;71825;-47
2024/04/13 04:02:32;;;;;;;;;15.00;14.25;;;;;16.46;74.25;102123.81;5428926;26;43819;-48
2024/04/13 04:04:58;;;;;;;;;15.50;14.00;;;;;16.46;73.69;102129.09;5445007;25;43842;-51
2024/04/13 04:07:23;;;;;;;;;11.75;11.75;;;;;16.44;73.78;102128.28;5487249;25;72922;-47
2024/04/13 04:09:48;;;;;;;;;15.75;14.75;;;;;16.43;75.42;102125.69;5450557;26;44486;-49
2024/04/13 04:12:13;;;;;;;;;18.50;15.00;;;;;16.42;74.55;102134.53;5427834;26;66922;-52
2024/04/13 04:14:39;;;;;;;;;14.50;11.50;;;;;16.39;75.49;102129.34;5439527;25;71681;-50
2024/04/13 04:17:05;;;;;;;;;16.25;14.50;;;;;16.38;74.54;102127.59;5437908;26;72168;-47
2024/04/13 04:19:31;;;;;;;;;14.00;11.50;;;;;16.36;74.99;102130.31;5428858;26;43904;-49
2024/04/13 04:21:56;;;;;;;;;17.00;15.00;;;;;16.35;75.30;102132.97;5428562;26;43731;-50
2024/04/13 04:24:22;;;;;;;;;17.75;13.25;;;;;16.33;74.41;102131.25;5432823;25;71861;-51
2024/04/13 04:26:48;;;;;;;;;15.00;15.00;;;;;16.31;75.01;102126.94;5440443;25;45348;-51
2024/04/13 04:29:14;;;;;;;;;15.25;11.50;;;;;16.31;75.68;102129.56;5428609;26;43721;-48
2024/04/13 04:31:41;;;;;;;;;14.25;13.00;;;;;16.29;75.66;102123.47;5452435;26;44005;-51
2024/04/13 04:34:07;;;;;;;;;16.25;15.50;;;;;16.29;75.50;102120.81;5433812;25;43989;-50
2024/04/13 04:36:32;;;;;;;;;13.00;11.25;;;;;16.27;74.85;102128.78;5437585;26;43831;-50
2024/04/13 04:38:58;;;;;;;;;14.00;12.00;;;;;16.25;75.25;102122.66;5428873;26;43960;-52
2024/04/13 04:41:23;;;;;;;;;13.25;12.25;;;;;16.24;75.70;102120.09;5449763;26;43910;-54
2024/04/13 04:43:49;;;;;;;;;17.50;13.75;;;;;16.24;75.52;102123.59;5436091;25;57288;-52
2024/04/13 04:46:15;;;;;;;;;14.75;10.00;;;;;16.22;75.47;102124.53;5440504;25;44061;-48
2024/04/13 04:48:40;;;;;;;;;17.00;13.50;;;;;16.21;75.96;102125.44;5430329;26;69436;-49
2024/04/13 04:51:05;;;;;;;;;16.75;13.75;;;;;16.18;75.33;102123.75;5430194;26;43918;-51
2024/04/13 04:53:30;;;;;;;;;14.50;11.75;;;;;16.17;75.60;102122.03;5430374;26;70509;-51
2024/04/13 04:55:59;;;;;;;;;15.75;13.50;;;;;16.16;75.81;102122.94;5459443;25;50959;-47
2024/04/13 04:58:24;;;;;;;;;12.75;12.25;;;;;16.16;76.02;102122.06;5431844;26;43859;-53
2024/04/13 05:00:50;;;;;;;;;18.25;13.50;;;;;16.13;75.40;102120.41;5430291;26;65578;-50
2024/04/13 05:03:16;;;;;;;;;15.75;13.50;;;;;16.10;76.38;102123.13;5431200;26;43854;-50
2024/04/13 05:05:41;;;;;;;;;18.00;13.75;;;;;16.09;76.20;102127.50;5453743;25;44042;-51
2024/04/13 05:08:07;;;;;;;;;14.25;12.25;;;;;16.09;75.23;102131.94;5436601;25;46113;-52
2024/04/13 05:10:32;;;;;;;;;14.50;13.25;;;;;16.08;76.59;102130.22;5461921;26;56654;-53
2024/04/13 05:12:57;;;;;;;;;16.25;13.25;;;;;16.05;75.37;102128.50;5466445;25;54838;-53
2024/04/13 05:15:23;;;;;;;;;19.00;12.00;;;;;16.04;76.16;102137.34;5464258;25;72426;-53
2024/04/13 05:17:48;;;;;;;;;14.75;14.25;;;;;16.01;76.25;102124.22;5431395;26;43881;-52
2024/04/13 05:20:14;;;;;;;;;18.00;14.00;;;;;16.00;76.05;102129.53;5430140;26;65955;-48
2024/04/13 05:22:39;;;;;;;;;15.25;13.25;;;;;16.00;76.89;102126.91;5431120;26;44022;-48
2024/04/13 05:25:05;;;;;;;;;18.00;14.50;;;;;15.98;75.68;102126.09;5445798;25;44642;-50
2024/04/13 05:27:31;;;;;;;;;11.25;11.25;;;;;15.99;75.70;102127.81;5431181;26;44413;-50
2024/04/13 05:30:02;;;;;;;;;14.25;13.25;;;;;15.99;76.27;102125.16;5431047;26;43877;-48
2024/04/13 05:32:27;;;;;;;;;16.75;12.50;;;;;15.98;76.40;102132.22;5447168;26;44006;-53
2024/04/13 05:34:53;;;;;;;;;13.00;11.25;;;;;15.97;76.76;102130.50;5414128;26;46763;-50
2024/04/13 05:37:18;;;;;;;;;15.50;10.00;;;;;15.98;77.01;102140.16;5429903;25;71655;-50
2024/04/13 05:39:43;;;;;;;;;24.00;17.00;;;;;15.98;77.47;102137.50;5430176;26;56362;-51
2024/04/13 05:42:08;;;;;;;;;17.50;14.75;;;;;16.00;76.79;102148.88;5478754;25;49242;-52
2024/04/13 05:44:34;;;;;;;;;16.25;13.75;;;;;15.99;76.97;102152.47;5463329;25;74298;-50
2024/04/13 05:46:59;;;;;;;;;20.00;16.50;;;;;16.01;76.48;102160.34;5459553;25;43777;-52
2024/04/13 05:49:25;;;;;;;;;25.25;16.00;;;;;16.03;77.13;102162.03;5429463;26;60964;-52
2024/04/13 05:51:50;;;;;;;;;17.50;16.75;;;;;16.06;75.93;102166.34;5430546;25;43659;-52
2024/04/13 05:54:15;;;;;;;;;17.75;15.25;;;;;16.05;77.00;102156.69;5433461;25;72898;-49
2024/04/13 05:56:41;;;;;;;;;17.00;14.75;;;;;16.07;77.42;102163.66;5452851;26;70349;-47
2024/04/13 05:59:06;;;;;;;;;22.00;15.50;;;;;16.10;76.36;102165.38;5429932;26;65878;-51
2024/04/13 06:01:32;;;;;;;;;20.50;15.00;;;;;16.12;77.09;102155.63;5430481;26;44041;-49
2024/04/13 06:03:57;;;;;;;;;17.75;13.75;;;;;16.18;75.70;102162.50;5432452;25;44004;-48
2024/04/13 06:06:23;;;;;;;;;23.00;17.00;;;;;16.21;76.11;102167.72;5456045;25;43934;-50
2024/04/13 06:08:48;;;;;;;;;18.75;14.75;;;;;16.25;76.41;102164.06;5437303;26;66507;-49
2024/04/13 06:11:13;;;;;;;;;17.25;14.50;;;;;16.30;77.25;102155.09;5430846;25;71483;-50
2024/04/13 06:13:39;;;;;;;;;19.75;16.25;;;;;16.35;75.68;102154.13;5430019;26;60978;-50
2024/04/13 06:16:04;;;;;;;;;20.50;16.25;;;;;16.41;76.37;102154.78;5452854;26;43933;-53
2024/04/13 06:18:29;;;;;;;;;19.75;15.50;;;;;16.48;76.67;102160.78;5430683;26;43895;-51
2024/04/13 06:20:55;;;;;;;;;18.00;17.00;;;;;16.51;75.35;102153.63;5429379;26;72832;-52
2024/04/13 06:23:20;;;;;;;;;19.00;17.75;;;;;16.56;76.10;102153.50;5429671;26;72940;-50
2024/04/13 06:25:48;;;;;;;;;17.25;13.75;;;;;16.61;74.88;102151.59;5448297;26;69032;-51
2024/04/13 06:28:15;;;;;;;;;19.50;17.50;;;;;16.63;74.81;102147.13;5430899;26;43891;-52
2024/04/13 06:30:42;;;;;;;;;16.75;15.50;;;;;16.70;74.85;102147.81;5462626;26;43855;-51
2024/04/13 06:33:08;;;;;;;;;21.75;17.00;;;;;16.75;75.71;102145.88;5466525;26;43931;-51
2024/04/13 06:35:33;;;;;;;;;19.00;16.00;;;;;16.81;74.66;102145.69;5455678;25;44391;-47
2024/04/13 06:37:59;;;;;;;;;18.25;16.00;;;;;16.87;74.20;102137.63;5429363;26;67297;-50
2024/04/13 06:40:24;;;;;;;;;19.75;16.00;;;;;16.91;75.12;102141.03;5433767;26;62250;-47
2024/04/13 06:42:50;;;;;;;;;22.25;20.25;;;;;16.94;74.39;102138.28;5445051;25;44670;-50
2024/04/13 06:45:16;;;;;;;;;15.00;14.50;;;;;16.97;73.98;102140.81;5441634;25;44438;-51
2024/04/13 06:47:42;;;;;;;;;20.50;15.25;;;;;17.02;73.89;102136.25;5430296;26;43717;-50
2024/04/13 06:50:07;;;;;;;;;18.75;16.75;;;;;17.06;74.31;102140.53;5429902;26;43802;-50
2024/04/13 06:52:33;;;;;;;;;16.75;15.50;;;;;17.12;74.04;102146.53;5427745;26;72311;-50
2024/04/13 06:54:58;;;;;;;;;21.50;17.50;;;;;17.15;72.55;102144.66;5439322;25;43923;-50
2024/04/13 06:57:26;;;;;;;;;19.25;18.25;;;;;17.20;72.37;102144.53;5428456;26;43878;-48
2024/04/13 06:59:51;;;;;;;;;23.50;17.50;;;;;17.24;74.02;102135.56;5427964;26;43955;-50
2024/04/13 07:02:17;;;;;;;;;17.50;17.25;;;;;17.29;72.94;102138.06;5428412;26;43931;-52
2024/04/13 07:04:42;;;;;;;;;25.50;20.75;;;;;17.32;72.38;102136.19;5444661;25;53118;-52
2024/04/13 07:07:07;;;;;;;;;21.00;17.75;;;;;17.36;73.49;102143.09;5466365;25;43775;-50
2024/04/13 07:09:33;;;;;;;;;21.50;17.75;;;;;17.41;71.95;102142.97;5457574;25;47781;-48
2024/04/13 07:11:59;;;;;;;;;19.25;18.25;;;;;17.46;72.18;102141.88;5440146;26;44837;-50
2024/04/13 07:14:24;;;;;;;;;19.25;15.75;;;;;17.51;72.07;102136.44;5437914;25;43995;-51
2024/04/13 07:16:50;;;;;;;;;18.50;17.00;;;;;17.57;71.07;102138.03;5444316;26;44430;-48
2024/04/13 07:19:17;;;;;;;;;16.75;14.50;;;;;17.59;72.23;102131.75;5429889;26;43935;-47
2024/04/13 07:21:42;;;;;;;;;19.75;18.50;;;;;17.65;72.36;102131.56;5429945;26;45836;-55
2024/04/13 07:24:08;;;;;;;;;15.25;15.00;;;;;17.68;71.27;102121.78;5458252;25;43911;-51
2024/04/13 07:26:33;;;;;;;;;23.75;18.75;;;;;17.77;71.47;102124.09;5445360;25;58336;-51
2024/04/13 07:28:59;;;;;;;;;21.50;16.25;;;;;17.83;71.41;102131.84;5429701;26;43859;-51
2024/04/13 07:31:24;;;;;;;;;13.50;13.25;;;;;17.90;71.29;102124.53;5440657;26;44565;-49
2024/04/13 07:33:50;;;;;;;;;17.25;14.00;;;;;17.94;71.10;102124.41;5440325;26;43643;-53
2024/04/13 07:36:16;;;;;;;;;21.00;15.25;;;;;18.02;70.97;102122.34;5444114;25;66015;-50
2024/04/13 07:38:41;;;;;;;;;17.25;16.50;;;;;18.08;70.19;102123.91;5429540;26;43708;-53
2024/04/13 07:41:06;;;;;;;;;16.00;12.00;;;;;18.15;69.51;102121.88;5447443;26;75277;-49
2024/04/13 07:43:32;;;;;;;;;14.75;11.00;;;;;18.17;70.11;102123.56;5432847;25;70842;-52
2024/04/13 07:45:57;;;;;;;;;18.00;15.75;;;;;18.19;69.37;102121.72;5440455;25;67365;-46
2024/04/13 07:48:22;;;;;;;;;19.25;15.00;;;;;18.21;70.04;102134.91;5428220;26;67881;-49
2024/04/13 07:50:47;;;;;;;;;16.00;15.25;;;;;18.25;69.56;102135.66;5428443;26;69144;-46
2024/04/13 07:53:13;;;;;;;;;23.50;14.50;;;;;18.28;69.79;102128.47;5428425;26;60330;-48
2024/04/13 07:55:38;;;;;;;;;16.75;15.25;;;;;18.35;69.50;102123.81;5452957;25;70271;-48
2024/04/13 07:58:03;;;;;;;;;22.00;16.50;;;;;18.40;69.33;102124.50;5464338;25;68889;-49
2024/04/13 08:00:29;;;;;;;;;17.50;17.50;;;;;18.45;69.23;102122.53;5462428;26;73568;-50
2024/04/13 08:02:54;;;;;;;;;15.25;14.75;;;;;18.52;68.60;102110.78;5464404;25;71376;-50
2024/04/13 08:05:19;;;;;;;;;17.50;16.00;;;;;18.56;68.73;102112.38;5462993;25;67085;-53
2024/04/13 08:07:45;;;;;;;;;18.00;14.75;;;;;18.62;68.07;102110.41;5465260;25;43857;-51
2024/04/13 08:10:10;;;;;;;;;20.75;17.25;;;;;18.67;67.96;102111.97;5445797;25;70295;-53
2024/04/13 08:12:35;;;;;;;;;16.25;14.75;;;;;18.73;68.20;102114.38;5428407;26;58636;-50
2024/04/13 08:15:02;;;;;;;;;20.75;15.50;;;;;18.79;68.24;102116.78;5451282;25;44019;-51
2024/04/13 08:17:28;;;;;;;;;18.75;16.50;;;;;18.85;68.28;102112.19;5437569;25;43938;-48
2024/04/13 08:19:54;;;;;;;;;19.50;17.00;;;;;18.90;67.63;102120.84;5449631;26;49713;-48
2024/04/13 08:22:19;;;;;;;;;18.25;14.75;;;;;18.95;67.05;102110.91;5468099;25;43838;-52
2024/04/13 08:24:45;;;;;;;;;25.25;15.50;;;;;19.01;67.33;102117.75;5467178;25;43650;-49
2024/04/13 08:27:10;;;;;;;;;20.75;13.50;;;;;19.08;66.81;102114.78;5437579;25;43912;-50
2024/04/13 08:29:36;;;;;;;;;15.00;13.50;;;;;19.16;67.28;102114.47;5428947;26;71025;-48
2024/04/13 08:32:01;;;;;;;;;11.00;10.25;;;;;19.23;66.91;102110.66;5460238;26;70092;-49
2024/04/13 08:34:26;;;;;;;;;14.75;13.75;;;;;19.29;66.72;102107.72;5467625;25;43792;-48
2024/04/13 08:36:52;;;;;;;;;17.00;13.25;;;;;19.36;66.04;102105.69;5438026;25;43991;-52
2024/04/13 08:39:18;;;;;;;;;13.00;12.25;;;;;19.44;65.73;102102.69;5431355;26;44645;-53
2024/04/13 08:41:53;;;;;;;;;16.75;12.75;;;;;19.50;65.94;102105.09;5472614;25;43852;-51
2024/04/13 08:44:18;;;;;;;;;19.00;15.75;;;;;19.57;65.70;102101.25;5436704;25;44489;-47
2024/04/13 08:46:44;;;;;;;;;18.00;13.25;;;;;19.66;65.75;102102.66;5430470;26;67708;-48
2024/04/13 08:49:09;;;;;;;;;15.25;12.75;;;;;19.76;65.63;102093.38;5428338;26;66146;-47
2024/04/13 08:51:36;;;;;;;;;15.50;12.00;;;;;19.88;64.82;102091.97;5430432;26;72219;-50
2024/04/13 08:54:01;;;;;;;;;17.00;12.00;;;;;19.98;65.10;102092.44;5434224;25;44064;-47
2024/04/13 08:56:28;;;;;;;;;12.50;12.50;;;;;20.06;64.73;102084.97;5433597;26;44071;-49
2024/04/13 08:58:55;;;;;;;;;14.00;11.25;;;;;20.16;64.51;102082.75;5428391;26;70692;-49
2024/04/13 09:01:27;;;;;;;;;16.25;13.25;;;;;20.23;64.73;102081.53;5431048;26;44286;-50
2024/04/13 09:03:53;;;;;;;;;11.25;10.75;;;;;20.33;63.80;102080.19;5432061;25;43818;-47
2024/04/13 09:06:18;;;;;;;;;13.25;9.50;;;;;20.40;63.68;102080.78;5457005;25;43729;-47
2024/04/13 09:08:46;;;;;;;;;9.75;9.25;;;;;20.49;63.55;102075.88;5404649;26;69497;-49
2024/04/13 09:11:11;;;;;;;;;12.25;9.00;;;;;20.58;63.09;102084.34;5430424;26;44042;-51
2024/04/13 09:13:37;;;;;;;;;9.25;9.25;;;;;20.65;62.95;102077.84;5431512;26;43750;-47
2024/04/13 09:16:03;;;;;;;;;10.75;9.75;;;;;20.75;62.52;102079.13;5453563;25;44307;-48
2024/04/13 09:18:28;;;;;;;;;10.25;8.50;;;;;20.87;62.45;102080.31;5430953;26;45760;-50
2024/04/13 09:20:54;;;;;;;;;8.00;8.00;;;;;20.96;61.89;102071.84;5431059;26;43836;-48
2024/04/13 09:23:20;;;;;;;;;10.25;7.75;;;;;21.04;62.44;102063.50;5445894;26;43854;-49
2024/04/13 09:25:45;;;;;;;;;8.75;8.00;;;;;21.13;62.02;102071.03;5447039;25;72651;-49
2024/04/13 09:28:12;;;;;;;;;13.25;10.75;;;;;21.21;61.16;102066.19;5434136;26;72063;-50
2024/04/13 09:30:39;;;;;;;;;10.25;7.75;;;;;21.30;62.08;102066.63;5441196;25;43927;-49
2024/04/13 09:33:06;;;;;;;;;11.50;9.25;;;;;21.37;61.03;102060.94;5467164;26;44101;-47
2024/04/13 09:35:32;;;;;;;;;10.75;10.50;;;;;21.46;60.77;102058.75;5470290;25;43935;-48
2024/04/13 09:37:58;;;;;;;;;13.25;9.25;;;;;21.53;60.22;102058.38;5466921;25;46415;-51
2024/04/13 09:40:23;;;;;;;;;13.50;11.75;;;;;21.62;61.02;102049.03;5464778;26;44026;-53
2024/04/13 09:42:49;;;;;;;;;14.75;9.75;;;;;21.68;59.66;102050.53;5473571;25;68053;-52
2024/04/13 09:45:14;;;;;;;;;12.00;11.25;;;;;21.74;59.98;102042.19;5442125;25;43959;-51
2024/04/13 09:47:40;;;;;;;;;12.75;8.00;;;;;21.80;59.40;102037.41;5419313;26;68272;-50
2024/04/13 09:50:05;;;;;;;;;10.25;9.75;;;;;21.87;60.10;102034.38;5463719;26;70795;-50
2024/04/13 09:52:34;;;;;;;;;6.25;6.25;;;;;21.93;59.44;102034.91;5467791;25;43809;-52
2024/04/13 09:55:00;;;;;;;;;13.75;11.25;;;;;22.02;58.89;102033.56;5456493;25;44066;-52
2024/04/13 09:57:26;;;;;;;;;8.50;6.75;;;;;22.10;59.61;102028.69;5430839;26;44032;-50
2024/04/13 09:59:52;;;;;;;;;8.50;7.50;;;;;22.17;58.21;102030.06;5455749;26;43913;-52
2024/04/13 10:02:18;;;;;;;;;10.00;8.25;;;;;22.27;57.60;102026.91;5437067;26;47208;-52
2024/04/13 10:04:44;;;;;;;;;7.75;6.75;;;;;22.35;58.65;102019.34;5465327;25;43905;-52
2024/04/13 10:07:11;;;;;;;;;6.75;6.75;;;;;22.42;57.66;102018.06;5445441;25;43998;-50
2024/04/13 10:09:38;;;;;;;;;11.00;7.00;;;;;22.51;57.25;102014.00;5439370;26;43905;-50
2024/04/13 10:12:06;;;;;;;;;6.50;6.50;;;;;22.59;56.54;102005.56;5428872;26;43829;-50
2024/04/13 10:14:33;;;;;;;;;7.25;6.00;;;;;22.66;56.43;102013.09;5440662;25;43659;-50
2024/04/13 10:17:01;;;;;;;;;7.00;5.00;;;;;22.75;56.81;102009.94;5440466;26;75276;-50
2024/04/13 10:19:27;;;;;;;;;8.75;7.00;;;;;22.82;57.05;102004.22;5444654;26;44216;-49
2024/04/13 10:22:00;;;;;;;;;7.75;7.25;;;;;22.93;56.47;101999.13;5430318;26;44105;-54
2024/04/13 10:24:28;;;;;;;;;9.00;6.50;;;;;23.05;56.45;101997.56;5438860;25;43960;-49
2024/04/13 10:27:07;;;;;;;;;5.00;5.00;;;;;23.16;55.81;102000.47;5469008;25;52578;-46
2024/04/13 10:29:40;;;;;;;;;6.25;5.00;;;;;23.23;55.21;101983.09;5430226;26;44319;-47
2024/04/13 10:32:23;;;;;;;;;6.00;6.00;;;;;23.35;53.88;101991.31;5459154;26;43900;-48
2024/04/13 10:34:49;;;;;;;;;7.50;5.00;;;;;23.41;54.61;101991.81;5464849;25;70494;-51
2024/04/13 10:37:26;;;;;;;;;5.25;5.00;;;;;23.46;53.86;101986.16;5430699;25;47330;-52
2024/04/13 10:40:03;;;;;;;;;6.75;5.00;;;;;23.50;54.02;101991.22;5427455;26;43666;-51
2024/04/13 10:42:42;;;;;;;;;6.75;5.75;;;;;23.55;53.90;101979.38;5449621;26;43889;-48
2024/04/13 10:45:19;;;;;;;;;4.75;4.75;;;;;23.61;53.19;101971.84;5444872;25;44050;-52
2024/04/13 10:47:45;;;;;;;;;8.00;7.00;;;;;23.65;52.43;101970.69;5431643;26;43982;-54
2024/04/13 10:50:15;;;;;;;;;6.00;5.00;;;;;23.69;53.09;101949.97;5462344;26;44189;-52
2024/04/13 10:52:41;;;;;;;;;8.00;6.50;;;;;23.75;53.25;101951.44;5467123;25;43822;-52
2024/04/13 10:55:11;;;;;;;;;6.00;5.00;;;;;23.78;52.63;101948.53;5453905;25;43993;-49
2024/04/13 10:57:36;;;;;;;;;4.75;4.00;;;;;23.81;51.97;101935.03;5430116;26;44816;-52
2024/04/13 11:00:01;;;;;;;;;8.00;5.75;;;;;23.84;51.33;101945.53;5437865;26;70359;-51
2024/04/13 11:02:27;;;;;;;;;6.00;6.00;;;;;23.87;51.06;101935.50;5430410;26;43737;-54
2024/04/13 11:04:53;;;;;;;;;6.25;5.50;;;;;23.88;51.51;101934.53;5445134;25;44041;-47
2024/04/13 11:07:18;;;;;;;;;7.50;5.25;;;;;23.91;51.05;101924.63;5441132;25;74136;-51